Airfield :
LOGIN :

Register | Disclaimer

   EN    FR    IT 

 










Legend :    VFR   Marginal VFR   IFR   Intensive IFR   Very Intensive IFR
Visi :
Ceiling :
>= 8 km
>= 3000ft
5 to 8 km
1000 to 3000 ft
1500m to 5 km
500 to 1000 ft
800 to 1500m
200 to 500 ft
< 800m
< 200 ft
Symbols :   Thunderstorms  Fog  Heavy snow  Heavy precipitations  Wind > 20 kt
SIGMETs :     Misc.  Thunderstorms  Icing  Turbulence  Mountain Waves  Volcanic Ashes






- Airport Elevation : 1058 ft
- IATA code : SCN


EDDR - Saarbrücken

CURRENT METAR :
  • 211620Z AUTO 27006KT 230V300 9999 SCT012 15/13 Q1007 TEMPO SCT013

EXPIRED METARs :
  • 211550Z AUTO 26007KT 9999 FEW011 15/13 Q1007 NOSIG
  • 211520Z AUTO 27008KT 9999 FEW010 15/13 Q1007 NOSIG
  • 211450Z AUTO 26008KT 9999 -DZ SCT012 14/13 Q1007 NOSIG
  • 211420Z AUTO 27009KT 9999 -RADZ FEW023 SCT030 14/13 Q1008 NOSIG
  • 211350Z AUTO 26009KT 9999 -RADZ SCT006 BKN014 BKN024 14/13 Q1008 NOSIG
  • 211320Z AUTO 28006KT 9999 -RA SCT006 BKN011 BKN016 14/13 Q1008 NOSIG
  • 211250Z AUTO 26006KT 230V290 9999 -RA FEW006 SCT012 OVC019 14/13 Q1008 RERA TEMPO BKN013
  • 211220Z AUTO 29006KT 250V310 9999 RA FEW005 BKN017 BKN023 14/13 Q1008 NOSIG
  • 211150Z AUTO 27007KT 9999 RA BKN005 BKN009 BKN014 13/13 Q1008 NOSIG

TAF TAF EDDR
Valid from the 21 at 12:00 until the 22 at 12:00 UTC


211100Z 2112/2212 26008KT 9000 SCT004 OVC011
TEMPO 2112/2115 3500 RA BKN004
BECMG 2115/2117 SCT020
TEMPO 2201/2208 4000 BR BKN003
BECMG 2208/2210 24013KT
PROB30
TEMPO 2210/2212 4500 -SHRA BKN014TCU



MET'MAP, your aeronautical weather chart ! - Copyright ORBIFLY December 2007 - Disclaimer

ORBIFLY MET'MAP TEAM :

Programming & Development : Alexandra Zaïnal
Original concept : Baudouin d'Aumeries
Technical & hardware support : Manuel Goepfert
Assistance : Marc-Olivier Méhu




SOURCES & CREDITS :

   NOAA